Terminal Aerodrome Forecast
Issued by NWS Upton, NY

Home | Current Version | Previous Version | Text Only | Print | Product List | Glossary On
Versions: 1 2 3 4 5 6 7 8 9 10 11 12 13 14 15 16 17 18 19 20 21 22 23 24 25 26 27 28 29 30 31 32 33
332
FTUS41 KOKX 262138 AAB
TAFEWR
TAF AMD
KEWR 262138Z 2622/2724 15006KT P6SM FEW035 BKN250
     FM270100 12004KT P6SM BKN250
     FM270500 04004KT P6SM SCT007
     FM270800 04004KT P6SM BKN007
     FM271300 03006KT P6SM SCT007 SCT100
     FM271700 09007KT P6SM FEW035 SCT100
     FM272100 14007KT P6SM FEW035 SCT100=

USA.gov is the U.S. government's official web portal to all federal, state and local government web resources and services.